Arpin, Wisconsin
Current Conditions -  °F | °C
As of 6:22 AM on Sunday 21 Dec 2014 (Local Time) from KMFI Reporting Station
Haze Haze  
Wind Chill: 20°   Ceiling: 400
Heat Index: 29°   Visibility: 3mi
Dew Point: 27°   Wind: 9mph
Humidity: 92%   Direction: 150°SSE
Pressure: 30.05"   Gusts: NA
Location:  44.54°N, 90.04°W
Report Text: KMFI 211222Z AUTO 15008KT 3SM BR OVC004 M02/M03 A3005 RMK AO2 T10171028
Loading
Personal Weather Stations






























Interactive Weather Map New forecast layout! Learn more

10-Day Weather Forecast

Advertisements
Track Severe Weather on mobile